Time;durP1;ratioP1;P1;durP2;ratioP2;P2;SDS_P1;SDS_P2;PMS_P1;PMS_P2;Temp;Humidity;BMP_temperature;BMP_pressure;BME280_temperature;BME280_humidity;BME280_pressure;Samples;Min_cycle;Max_cycle;Signal;HPM_P1;HPM_P2
2022/09/23 00:01:15;;;;;;;1.83;1.57;;;;;;;12.98;56.92;97150.78;5109492;28;20267;-77
2022/09/23 00:03:45;;;;;;;1.47;1.37;;;;;;;13.11;57.08;97153.59;5111672;28;20680;-78
2022/09/23 00:06:17;;;;;;;1.73;1.57;;;;;;;13.16;56.08;97149.81;5113972;27;20189;-77
2022/09/23 00:08:44;;;;;;;1.97;1.57;;;;;;;13.28;55.68;97143.09;5112116;28;20280;-76
2022/09/23 00:11:19;;;;;;;1.33;1.23;;;;;;;13.30;55.61;97128.25;5110959;28;20280;-80
2022/09/23 00:13:58;;;;;;;1.70;1.40;;;;;;;13.48;55.13;97133.25;5098015;28;20202;-79
2022/09/23 00:16:32;;;;;;;2.07;1.60;;;;;;;13.50;55.40;97133.19;5110978;28;20289;-76
2022/09/23 00:19:01;;;;;;;2.10;1.53;;;;;;;13.57;55.60;97139.72;5110005;28;20759;-78
2022/09/23 00:21:29;;;;;;;3.20;1.33;;;;;;;13.62;55.00;97127.31;5109297;28;20213;-80
2022/09/23 00:23:56;;;;;;;1.80;1.40;;;;;;;13.46;54.65;97110.84;5110223;28;20727;-80
2022/09/23 00:26:36;;;;;;;3.00;1.90;;;;;;;13.52;55.37;97144.34;5108149;28;20260;-79
2022/09/23 00:29:05;;;;;;;1.60;1.50;;;;;;;13.38;57.54;97128.66;5111499;28;20193;-76
2022/09/23 00:31:56;;;;;;;2.03;1.83;;;;;;;13.37;58.11;97127.00;5113720;28;20321;-78
2022/09/23 00:34:39;;;;;;;1.40;1.30;;;;;;;13.22;58.27;97118.28;5095210;28;20493;-77
2022/09/23 00:40:11;;;;;;;1.50;1.40;;;;;;;13.24;58.87;97120.78;5102771;28;20700;-80
2022/09/23 00:42:50;;;;;;;1.83;1.40;;;;;;;13.17;59.10;97124.66;5072812;28;20233;-81
2022/09/23 00:45:23;;;;;;;1.80;1.47;;;;;;;13.23;58.23;97124.31;5106289;28;20219;-77
2022/09/23 00:48:32;;;;;;;1.47;1.37;;;;;;;13.14;58.50;97122.22;5038349;28;20652;-78
2022/09/23 00:51:42;;;;;;;2.53;1.67;;;;;;;12.95;59.37;97125.78;5071919;28;20199;-78
2022/09/23 00:55:03;;;;;;;1.67;1.40;;;;;;;12.93;59.85;97132.81;5074039;28;20181;-80
2022/09/23 00:57:33;;;;;;;1.70;1.60;;;;;;;12.90;60.21;97130.38;5068844;28;20246;-75
2022/09/23 01:00:00;;;;;;;1.30;1.20;;;;;;;12.71;61.27;97121.03;5067344;28;20204;-75
2022/09/23 01:02:30;;;;;;;1.50;1.40;;;;;;;12.60;61.38;97103.44;5066946;28;20183;-78
2022/09/23 01:04:58;;;;;;;1.50;1.40;;;;;;;12.50;61.52;97115.22;5066897;28;20214;-76
2022/09/23 01:07:32;;;;;;;2.10;1.60;;;;;;;12.56;62.48;97117.50;5069564;28;20196;-81
2022/09/23 01:10:06;;;;;;;2.37;2.00;;;;;;;12.50;62.21;97123.00;5034963;28;20204;-74
2022/09/23 01:12:54;;;;;;;2.17;1.97;;;;;;;12.53;62.10;97127.22;5068362;28;20193;-75
2022/09/23 01:15:48;;;;;;;2.20;1.97;;;;;;;12.38;62.98;97126.25;5066079;28;20281;-74
2022/09/23 01:18:21;;;;;;;3.57;2.30;;;;;;;12.34;63.46;97131.66;5067016;28;20278;-77
2022/09/23 01:21:06;;;;;;;4.00;2.77;;;;;;;12.25;63.96;97131.22;5067297;28;20286;-77
2022/09/23 01:24:07;;;;;;;2.60;2.37;;;;;;;12.22;64.09;97126.16;5067031;28;20195;-76
2022/09/23 01:26:37;;;;;;;2.73;2.50;;;;;;;11.95;65.39;97130.16;5066842;28;20189;-78
2022/09/23 01:29:29;;;;;;;2.40;2.20;;;;;;;11.57;66.20;97130.31;5067375;28;20224;-75
2022/09/23 01:32:13;;;;;;;3.60;2.50;;;;;;;11.37;67.06;97119.13;5066165;28;20181;-75
2022/09/23 01:34:49;;;;;;;2.90;2.53;;;;;;;11.27;67.47;97125.66;5067093;28;20276;-75
2022/09/23 01:37:28;;;;;;;2.47;2.00;;;;;;;11.03;68.65;97113.03;5068537;28;20682;-78
2022/09/23 01:40:04;;;;;;;2.47;2.27;;;;;;;10.97;69.19;97123.66;5068162;28;20300;-78
2022/09/23 01:42:43;;;;;;;2.07;1.83;;;;;;;10.99;68.91;97121.84;5078865;28;20695;-77
2022/09/23 01:45:13;;;;;;;2.00;1.90;;;;;;;10.95;68.71;97134.13;5087521;28;20218;-76
2022/09/23 01:48:09;;;;;;;3.13;2.00;;;;;;;10.91;68.92;97126.53;5091343;28;20196;-74
2022/09/23 01:50:55;;;;;;;2.77;2.33;;;;;;;10.79;69.27;97127.09;5091128;28;20538;-74
2022/09/23 01:53:37;;;;;;;3.27;2.00;;;;;;;10.70;69.80;97123.16;5090641;28;20212;-78
2022/09/23 01:56:12;;;;;;;2.37;2.10;;;;;;;10.68;69.45;97122.41;5091154;28;20188;-75
2022/09/23 01:58:52;;;;;;;2.20;1.83;;;;;;;10.87;69.10;97125.84;5090207;28;20196;-75
2022/09/23 02:01:45;;;;;;;2.30;2.10;;;;;;;10.90;69.07;97128.28;5091318;28;20614;-79
2022/09/23 02:04:21;;;;;;;2.80;2.20;;;;;;;10.88;68.79;97132.69;5092251;28;20209;-80
2022/09/23 02:06:57;;;;;;;3.03;1.90;;;;;;;10.83;68.83;97128.66;5093275;28;20252;-82
2022/09/23 02:09:29;;;;;;;2.50;2.17;;;;;;;10.70;69.21;97137.88;5094270;28;20614;-77
2022/09/23 02:12:05;;;;;;;2.50;2.30;;;;;;;10.82;69.58;97137.34;5091084;28;20227;-81
2022/09/23 02:14:43;;;;;;;2.73;2.20;;;;;;;10.93;68.59;97138.53;5090839;28;20276;-81
2022/09/23 02:17:16;;;;;;;2.40;2.20;;;;;;;10.76;68.50;97122.91;5072272;28;20199;-81
2022/09/23 02:19:54;;;;;;;2.97;2.17;;;;;;;10.63;69.41;97138.13;5090316;28;20188;-81
2022/09/23 02:22:35;;;;;;;2.37;2.17;;;;;;;10.75;68.93;97128.16;5091258;28;20195;-81
2022/09/23 02:25:02;;;;;;;2.60;2.20;;;;;;;10.67;69.21;97143.19;5073587;28;20230;-83
2022/09/23 02:27:55;;;;;;;3.87;2.83;;;;;;;10.51;69.64;97141.28;5097513;28;20189;-82
2022/09/23 02:30:30;;;;;;;2.73;2.53;;;;;;;10.34;70.61;97145.50;5090678;28;20220;-80
2022/09/23 02:33:21;;;;;;;2.80;2.07;;;;;;;10.34;70.49;97132.56;5092814;28;20207;-82
2022/09/23 02:36:06;;;;;;;2.57;2.37;;;;;;;10.40;69.90;97137.47;5072035;28;20577;-83
2022/09/23 02:38:50;;;;;;;2.20;2.00;;;;;;;10.48;69.55;97138.00;5091124;28;20203;-78
2022/09/23 02:41:48;;;;;;;2.37;2.10;;;;;;;10.69;69.22;97139.63;5090143;28;20224;-78
2022/09/23 02:44:18;;;;;;;2.50;2.30;;;;;;;10.66;69.09;97132.00;5084973;28;20747;-82
2022/09/23 02:46:46;;;;;;;3.47;2.33;;;;;;;10.41;69.47;97131.38;5102177;28;20198;-81
2022/09/23 02:49:19;;;;;;;3.20;2.50;;;;;;;10.38;69.69;97142.75;5109681;28;20187;-76
2022/09/23 02:51:46;;;;;;;2.50;2.30;;;;;;;10.45;69.79;97153.63;5110344;28;20195;-78
2022/09/23 02:54:17;;;;;;;2.47;2.20;;;;;;;10.50;70.07;97147.38;5091402;28;20200;-76
2022/09/23 02:56:44;;;;;;;2.60;2.20;;;;;;;10.67;69.52;97146.63;5108999;28;20274;-82
2022/09/23 02:59:12;;;;;;;2.27;2.07;;;;;;;10.62;69.08;97145.97;5109328;28;20187;-81
2022/09/23 03:01:53;;;;;;;2.60;2.27;;;;;;;10.55;69.40;97155.75;5091128;28;20723;-82
2022/09/23 03:04:42;;;;;;;3.67;2.97;;;;;;;10.68;69.12;97135.34;5089228;28;20192;-79
2022/09/23 03:07:31;;;;;;;2.67;2.33;;;;;;;10.93;69.03;97150.63;5106924;28;20291;-82
2022/09/23 03:10:10;;;;;;;5.67;2.70;;;;;;;10.83;68.23;97151.97;5110088;28;20285;-81
2022/09/23 03:13:12;;;;;;;4.57;2.53;;;;;;;10.68;69.01;97142.28;5109242;28;20188;-81
2022/09/23 03:15:51;;;;;;;2.87;2.67;;;;;;;10.41;69.66;97145.19;5109257;28;20197;-79
2022/09/23 03:18:24;;;;;;;3.47;2.60;;;;;;;10.44;69.40;97150.22;5110029;28;20613;-82
2022/09/23 03:20:57;;;;;;;4.43;2.80;;;;;;;10.16;70.05;97146.31;5104354;28;20727;-82
2022/09/23 03:23:30;;;;;;;4.37;3.20;;;;;;;9.98;69.99;97128.91;5071489;28;20188;-75
2022/09/23 03:26:03;;;;;;;4.87;3.37;;;;;;;10.00;70.69;97132.28;5089030;28;20248;-76
2022/09/23 03:28:34;;;;;;;4.17;2.80;;;;;;;10.03;70.54;97145.09;5070752;28;20231;-81
2022/09/23 03:31:02;;;;;;;4.07;3.10;;;;;;;10.07;70.69;97128.53;5089182;28;20196;-80
2022/09/23 03:33:30;;;;;;;6.20;3.57;;;;;;;10.06;69.67;97119.94;5088833;28;20658;-81
2022/09/23 03:38:57;;;;;;;6.77;3.93;;;;;;;10.52;69.50;97150.75;5090801;28;20197;-81
2022/09/23 03:41:33;;;;;;;4.97;3.57;;;;;;;10.59;69.07;97146.94;5088714;28;20196;-84
2022/09/23 03:44:01;;;;;;;5.43;3.67;;;;;;;10.54;69.18;97153.25;5089105;28;20180;-82
2022/09/23 03:46:29;;;;;;;3.60;3.00;;;;;;;10.51;68.60;97145.59;5088217;28;20774;-81
2022/09/23 03:49:08;;;;;;;5.00;3.77;;;;;;;10.42;68.86;97171.91;5089473;28;20316;-77
2022/09/23 03:51:35;;;;;;;6.30;3.97;;;;;;;10.31;69.16;97158.56;5088324;28;20181;-81
2022/09/23 03:54:02;;;;;;;6.47;4.13;;;;;;;10.46;69.17;97165.69;5088721;28;20188;-82
2022/09/23 03:56:28;;;;;;;8.47;4.77;;;;;;;10.32;68.65;97165.44;5088550;28;20283;-81
2022/09/23 03:58:55;;;;;;;7.23;4.20;;;;;;;10.03;69.45;97163.22;5071943;28;20196;-81
2022/09/23 04:01:22;;;;;;;6.77;4.57;;;;;;;9.89;69.73;97157.78;5088620;28;20184;-78
2022/09/23 04:03:51;;;;;;;4.60;3.70;;;;;;;9.97;69.69;97168.63;5087611;28;20207;-80
2022/09/23 04:06:19;;;;;;;6.00;3.47;;;;;;;9.64;70.13;97161.31;5070662;28;20254;-83
2022/09/23 04:08:46;;;;;;;5.23;3.43;;;;;;;9.49;71.09;97169.72;5102840;28;20184;-81
2022/09/23 04:11:13;;;;;;;3.40;3.10;;;;;;;9.23;72.28;97171.63;5088564;28;20230;-81
2022/09/23 04:13:40;;;;;;;5.90;3.33;;;;;;;9.30;71.73;97168.75;5093481;28;20597;-80
2022/09/23 04:16:07;;;;;;;4.20;2.90;;;;;;;8.97;72.79;97170.00;5089093;28;20188;-81
2022/09/23 04:18:34;;;;;;;3.53;3.20;;;;;;;8.93;73.31;97171.03;5108567;28;20192;-79
2022/09/23 04:21:01;;;;;;;3.67;3.37;;;;;;;9.03;73.15;97180.97;5089515;28;20309;-82
2022/09/23 04:23:28;;;;;;;4.73;3.00;;;;;;;9.08;73.48;97175.63;5090075;28;20202;-81
2022/09/23 04:25:55;;;;;;;8.13;4.20;;;;;;;9.28;73.41;97186.03;5107713;28;20230;-79
2022/09/23 04:28:22;;;;;;;4.87;3.67;;;;;;;9.24;71.99;97137.97;5090394;28;20237;-78
2022/09/23 04:30:50;;;;;;;3.50;2.90;;;;;;;8.86;73.36;97146.34;5107728;28;20255;-80
2022/09/23 04:33:17;;;;;;;7.30;3.83;;;;;;;8.99;73.40;97183.72;5089696;28;20204;-81
2022/09/23 04:35:49;;;;;;;4.10;3.13;;;;;;;8.75;74.85;97179.47;5090337;28;20240;-77
2022/09/23 04:38:17;;;;;;;4.17;3.03;;;;;;;8.66;75.04;97159.13;5107491;28;20195;-77
2022/09/23 04:40:45;;;;;;;2.80;2.60;;;;;;;8.82;74.95;97186.91;5110138;28;20187;-83
2022/09/23 04:43:13;;;;;;;4.03;3.27;;;;;;;8.77;74.87;97182.81;5107099;28;20227;-82
2022/09/23 04:45:42;;;;;;;3.40;2.83;;;;;;;8.96;75.08;97194.19;5110462;28;20306;-81
2022/09/23 04:48:12;;;;;;;4.30;2.93;;;;;;;9.00;74.56;97200.91;5107692;28;20200;-80
2022/09/23 04:50:40;;;;;;;3.23;2.93;;;;;;;8.78;75.26;97161.25;5108007;28;20188;-82
2022/09/23 04:53:07;;;;;;;5.13;3.00;;;;;;;9.20;73.90;97198.41;5107905;28;20188;-82
2022/09/23 04:55:34;;;;;;;4.77;3.30;;;;;;;9.42;73.92;97209.63;5088897;28;20190;-81
2022/09/23 04:58:01;;;;;;;4.03;2.90;;;;;;;9.54;72.46;97196.22;5089608;28;20220;-78
2022/09/23 05:00:28;;;;;;;3.70;3.10;;;;;;;9.45;72.11;97206.94;5088785;28;20596;-82
2022/09/23 05:02:57;;;;;;;3.90;3.23;;;;;;;9.18;72.72;97184.72;5090679;28;20241;-82
2022/09/23 05:05:25;;;;;;;4.33;3.43;;;;;;;9.34;73.10;97209.06;5089076;28;20302;-81
2022/09/23 05:07:54;;;;;;;3.23;2.80;;;;;;;9.44;71.96;97209.53;5108125;28;20185;-77
2022/09/23 05:10:21;;;;;;;4.40;3.63;;;;;;;9.50;72.38;97212.75;5089560;28;20587;-83
2022/09/23 05:12:48;;;;;;;3.33;2.90;;;;;;;9.74;71.29;97213.53;5089437;28;20194;-81
2022/09/23 05:15:22;;;;;;;3.50;3.20;;;;;;;9.83;70.96;97195.91;5107731;28;20215;-78
2022/09/23 05:17:49;;;;;;;4.20;3.13;;;;;;;9.80;70.73;97185.69;5088951;28;20191;-81
2022/09/23 05:20:17;;;;;;;3.10;2.80;;;;;;;9.90;70.62;97208.59;5107298;28;20275;-80
2022/09/23 05:22:44;;;;;;;3.07;2.73;;;;;;;9.71;70.67;97201.56;5089205;28;20194;-80
2022/09/23 05:25:11;;;;;;;5.93;2.67;;;;;;;9.69;70.73;97208.53;5090019;28;20215;-82
2022/09/23 05:27:38;;;;;;;3.33;2.80;;;;;;;9.54;71.70;97216.06;5107121;28;20195;-82
2022/09/23 05:30:06;;;;;;;7.33;3.10;;;;;;;9.44;71.77;97202.63;5108506;28;20613;-79
2022/09/23 05:32:33;;;;;;;4.30;3.47;;;;;;;9.42;73.17;97214.78;5107974;28;20720;-81
2022/09/23 05:35:00;;;;;;;4.53;3.20;;;;;;;9.31;73.04;97216.97;5107844;28;20835;-82
2022/09/23 05:37:31;;;;;;;3.90;3.30;;;;;;;9.21;73.58;97188.94;5108135;28;20199;-81
2022/09/23 05:39:58;;;;;;;3.17;2.87;;;;;;;9.23;73.71;97198.31;5106861;28;20276;-81
2022/09/23 05:42:27;;;;;;;3.23;2.70;;;;;;;9.37;73.39;97221.03;5107916;28;20315;-81
2022/09/23 05:44:55;;;;;;;3.10;2.80;;;;;;;9.31;74.10;97198.00;5108130;28;20241;-82
2022/09/23 05:47:22;;;;;;;6.23;2.93;;;;;;;9.66;72.36;97192.31;5107728;28;20188;-83
2022/09/23 05:49:48;;;;;;;3.17;2.87;;;;;;;9.97;71.22;97176.41;5107490;28;20214;-79
2022/09/23 05:52:26;;;;;;;5.97;2.97;;;;;;;10.53;69.87;97214.53;5107935;28;20209;-81
2022/09/23 05:54:56;;;;;;;4.17;2.90;;;;;;;10.61;68.29;97180.56;5108571;28;20192;-80
2022/09/23 05:57:26;;;;;;;3.30;3.00;;;;;;;11.29;67.75;97206.81;5108463;28;20214;-86
2022/09/23 05:59:56;;;;;;;4.80;3.60;;;;;;;11.78;65.76;97210.59;5090873;28;20191;-84
2022/09/23 06:02:24;;;;;;;3.83;2.77;;;;;;;11.92;64.27;97207.31;5109259;28;20192;-83
2022/09/23 06:04:51;;;;;;;4.13;2.63;;;;;;;12.10;64.31;97190.84;5106717;28;20671;-81
2022/09/23 06:07:22;;;;;;;6.80;3.60;;;;;;;12.11;64.05;97197.75;5110625;28;20258;-84
2022/09/23 06:09:56;;;;;;;4.07;3.23;;;;;;;12.25;63.91;97208.28;5089260;28;20291;-79
2022/09/23 06:12:23;;;;;;;4.67;3.27;;;;;;;12.26;63.96;97210.78;5108028;28;20184;-83
2022/09/23 06:14:51;;;;;;;2.90;2.60;;;;;;;12.20;64.26;97198.09;5107216;28;20249;-82
2022/09/23 06:17:18;;;;;;;3.73;2.37;;;;;;;12.23;65.40;97186.75;5107771;28;20290;-79
2022/09/23 06:19:45;;;;;;;5.03;2.63;;;;;;;12.27;64.12;97191.72;5106970;28;20215;-78
2022/09/23 06:22:15;;;;;;;4.20;2.37;;;;;;;12.36;64.01;97202.56;5109196;28;20219;-81
2022/09/23 06:24:44;;;;;;;3.50;2.33;;;;;;;12.37;63.65;97189.47;5109622;28;20192;-76
2022/09/23 06:27:15;;;;;;;3.30;2.47;;;;;;;12.57;62.91;97198.88;5088774;28;20607;-82
2022/09/23 06:29:44;;;;;;;5.33;2.40;;;;;;;12.71;62.36;97193.81;5087960;28;20198;-80
2022/09/23 06:32:11;;;;;;;4.87;3.00;;;;;;;12.93;62.15;97190.00;5074308;28;20611;-78
2022/09/23 06:34:40;;;;;;;3.63;2.87;;;;;;;13.19;61.46;97191.25;5094090;28;20185;-77
2022/09/23 06:37:17;;;;;;;4.47;2.73;;;;;;;13.30;60.86;97193.25;5110735;28;20278;-79
2022/09/23 06:39:47;;;;;;;3.03;2.73;;;;;;;13.41;60.50;97183.97;5111530;28;20191;-80
2022/09/23 06:42:15;;;;;;;4.23;3.43;;;;;;;13.63;59.70;97187.06;5112404;28;20240;-83
2022/09/23 06:44:42;;;;;;;8.30;5.23;;;;;;;14.02;59.20;97183.13;5113180;28;20196;-82
2022/09/23 06:47:12;;;;;;;7.97;4.90;;;;;;;14.50;56.98;97190.75;5111098;28;20271;-78
2022/09/23 06:49:39;;;;;;;6.67;3.57;;;;;;;14.72;56.29;97195.53;5110163;28;20194;-83
2022/09/23 06:52:06;;;;;;;4.07;3.10;;;;;;;14.84;55.84;97194.81;5113765;28;20219;-78
2022/09/23 06:54:33;;;;;;;7.63;4.20;;;;;;;15.09;55.12;97192.38;5076645;28;20251;-82
2022/09/23 06:57:00;;;;;;;3.80;3.23;;;;;;;15.08;54.55;97188.09;5094116;28;20240;-80
2022/09/23 06:59:27;;;;;;;4.27;3.33;;;;;;;15.07;54.42;97171.63;5121992;28;20208;-78
2022/09/23 07:01:55;;;;;;;6.00;5.40;;;;;;;15.26;54.03;97181.75;5104134;28;20280;-85
2022/09/23 07:04:38;;;;;;;6.93;2.90;;;;;;;15.36;53.71;97177.63;5096458;28;20187;-78
2022/09/23 07:07:15;;;;;;;3.67;2.93;;;;;;;15.59;52.92;97195.34;5094416;28;20247;-82
2022/09/23 07:09:44;;;;;;;5.47;3.63;;;;;;;15.78;52.56;97180.19;5116954;28;20180;-81
2022/09/23 07:12:11;;;;;;;7.17;5.60;;;;;;;16.05;52.00;97199.28;5118440;28;20256;-81
2022/09/23 07:14:39;;;;;;;4.43;3.17;;;;;;;16.16;51.75;97186.38;5114923;28;20494;-80
2022/09/23 07:17:06;;;;;;;5.73;3.50;;;;;;;16.33;50.49;97200.94;5097752;28;20226;-79
2022/09/23 07:19:34;;;;;;;9.43;3.03;;;;;;;16.21;50.41;97209.59;5113589;28;20286;-84
2022/09/23 07:22:01;;;;;;;3.47;3.10;;;;;;;16.37;49.65;97217.25;5120245;28;20208;-82
2022/09/23 07:24:28;;;;;;;3.17;2.87;;;;;;;16.17;49.35;97174.97;5101900;28;20196;-83
2022/09/23 07:26:57;;;;;;;4.70;3.27;;;;;;;16.62;49.01;97206.88;5120546;28;20307;-80
2022/09/23 07:29:24;;;;;;;7.67;4.37;;;;;;;16.79;48.99;97211.81;5104490;28;20269;-81
2022/09/23 07:31:51;;;;;;;3.77;2.60;;;;;;;16.69;49.08;97182.00;5106136;28;20189;-84
2022/09/23 07:34:21;;;;;;;3.47;3.10;;;;;;;16.80;48.77;97213.47;5116103;28;20220;-83
2022/09/23 07:36:48;;;;;;;4.13;2.90;;;;;;;16.85;48.12;97208.78;5114639;28;20961;-82
2022/09/23 07:39:17;;;;;;;4.40;2.90;;;;;;;16.93;48.37;97211.72;5117484;28;20227;-84
2022/09/23 07:41:44;;;;;;;6.87;2.93;;;;;;;17.08;46.82;97213.28;5113918;28;20311;-81
2022/09/23 07:44:11;;;;;;;5.00;3.10;;;;;;;17.18;47.13;97208.25;5112816;28;20201;-85
2022/09/23 07:46:38;;;;;;;5.73;3.80;;;;;;;17.18;47.10;97196.00;5116944;28;20250;-83
2022/09/23 07:49:06;;;;;;;4.93;3.33;;;;;;;17.21;46.49;97203.63;5093414;28;20545;-83
2022/09/23 07:51:37;;;;;;;4.97;2.67;;;;;;;17.02;46.65;97213.72;5113975;28;20193;-82
2022/09/23 07:54:09;;;;;;;4.63;2.90;;;;;;;16.63;47.16;97214.59;5114996;28;20180;-81
2022/09/23 07:56:37;;;;;;;3.47;2.63;;;;;;;17.03;46.63;97223.22;5117562;28;20223;-81
2022/09/23 07:59:07;;;;;;;3.63;2.80;;;;;;;16.99;47.09;97198.19;5120173;28;20191;-85
2022/09/23 08:01:36;;;;;;;3.90;2.70;;;;;;;17.40;47.03;97211.88;5121619;28;20230;-79
2022/09/23 08:04:07;;;;;;;3.63;2.97;;;;;;;17.69;46.47;97207.22;5117212;28;20186;-83
2022/09/23 08:06:35;;;;;;;4.03;2.90;;;;;;;18.00;46.04;97205.84;5100373;28;20220;-82
2022/09/23 08:09:02;;;;;;;6.37;3.10;;;;;;;18.11;46.18;97208.53;5099496;28;20209;-85
2022/09/23 08:11:32;;;;;;;6.17;3.00;;;;;;;18.23;45.14;97190.13;5114810;28;20202;-88
2022/09/23 08:14:12;;;;;;;8.87;4.00;;;;;;;18.16;44.35;97201.16;5098830;28;20766;-81
2022/09/23 08:16:40;;;;;;;2.80;2.37;;;;;;;18.13;44.17;97199.63;5117768;28;20245;-79
2022/09/23 08:19:11;;;;;;;6.17;3.03;;;;;;;18.30;43.45;97201.00;5118229;28;20201;-81
2022/09/23 08:21:41;;;;;;;5.37;2.87;;;;;;;18.30;43.35;97206.25;5096069;28;20193;-85
2022/09/23 08:24:17;;;;;;;3.70;2.60;;;;;;;18.09;43.69;97202.56;5078634;28;20199;-82
2022/09/23 08:26:46;;;;;;;4.23;2.90;;;;;;;18.27;43.77;97202.06;5119224;28;20213;-84
2022/09/23 08:29:18;;;;;;;3.37;2.80;;;;;;;18.14;43.52;97200.44;5118895;28;20277;-82
2022/09/23 08:31:48;;;;;;;5.13;2.53;;;;;;;17.96;44.52;97196.53;5116512;28;20194;-80
2022/09/23 08:34:17;;;;;;;4.63;3.00;;;;;;;17.50;44.51;97188.53;5113845;28;20188;-80
2022/09/23 08:36:45;;;;;;;2.90;2.00;;;;;;;17.31;44.63;97203.84;5114402;28;20213;-83
2022/09/23 08:39:15;;;;;;;2.80;1.87;;;;;;;16.32;46.73;97194.03;5109329;28;20238;-82
2022/09/23 08:41:55;;;;;;;2.43;2.23;;;;;;;16.26;48.05;97191.81;5108732;28;20215;-79
2022/09/23 08:44:30;;;;;;;3.20;2.37;;;;;;;16.14;47.97;97188.25;5108881;28;20192;-81
2022/09/23 08:47:12;;;;;;;4.27;1.90;;;;;;;16.38;47.08;97191.03;5108620;28;20746;-80
2022/09/23 08:50:11;;;;;;;1.90;1.80;;;;;;;16.48;46.37;97212.16;5090318;28;20177;-83
2022/09/23 08:53:01;;;;;;;2.30;1.60;;;;;;;16.33;46.86;97192.25;5109230;28;20188;-82
2022/09/23 08:55:48;;;;;;;1.83;1.67;;;;;;;16.01;46.72;97176.91;5090589;28;20184;-80
2022/09/23 08:58:37;;;;;;;11.43;5.40;;;;;;;16.06;46.82;97195.75;5109724;28;20227;-82
2022/09/23 09:01:25;;;;;;;2.43;1.93;;;;;;;15.97;47.45;97179.84;5090094;28;20189;-82
2022/09/23 09:03:52;;;;;;;15.30;6.87;;;;;;;16.10;47.70;97186.75;5108970;28;20200;-79
2022/09/23 09:06:36;;;;;;;3.23;2.27;;;;;;;16.30;47.39;97183.66;5090374;28;20220;-82
2022/09/23 09:09:27;;;;;;;3.37;2.50;;;;;;;16.26;47.60;97179.59;5107929;28;20187;-82
2022/09/23 09:12:02;;;;;;;6.03;2.60;;;;;;;16.15;47.98;97176.88;5109666;28;20193;-81
2022/09/23 09:14:55;;;;;;;36.93;15.57;;;;;;;16.26;48.72;97182.19;5092253;28;20666;-80
2022/09/23 09:17:35;;;;;;;3.70;2.50;;;;;;;16.35;48.06;97179.91;5089326;28;20184;-82
2022/09/23 09:20:22;;;;;;;2.53;2.07;;;;;;;16.43;48.12;97180.25;5090821;28;20194;-82
2022/09/23 09:22:56;;;;;;;1.90;1.70;;;;;;;16.09;47.57;97174.63;5088683;28;20183;-82
2022/09/23 09:25:44;;;;;;;3.10;2.00;;;;;;;16.15;47.72;97179.47;5107774;28;20270;-83
2022/09/23 09:28:35;;;;;;;3.13;2.03;;;;;;;16.24;48.50;97183.22;5088835;28;20242;-83
2022/09/23 09:31:17;;;;;;;1.73;1.57;;;;;;;16.18;47.66;97178.41;5108462;28;20201;-82
2022/09/23 09:33:51;;;;;;;2.13;1.57;;;;;;;16.25;47.49;97183.16;5107819;28;20189;-82
2022/09/23 09:36:39;;;;;;;3.73;2.43;;;;;;;16.15;47.83;97161.19;5088747;28;20683;-85
2022/09/23 09:39:11;;;;;;;2.67;2.00;;;;;;;16.34;46.73;97175.66;5107343;28;20730;-82
2022/09/23 09:41:43;;;;;;;2.50;2.10;;;;;;;16.48;46.28;97183.41;5109357;28;20644;-84
2022/09/23 09:44:27;;;;;;;4.20;3.10;;;;;;;16.64;46.22;97189.28;5108773;28;20188;-83
2022/09/23 09:47:36;;;;;;;6.20;4.27;;;;;;;17.10;45.16;97191.28;5108691;28;20223;-82
2022/09/23 09:50:08;;;;;;;5.60;3.90;;;;;;;17.48;43.79;97188.59;5088628;28;20718;-81
2022/09/23 09:52:37;;;;;;;3.47;2.50;;;;;;;17.82;41.28;97193.16;5088226;28;20640;-83
2022/09/23 09:55:11;;;;;;;3.37;2.20;;;;;;;18.13;40.76;97188.28;5109541;28;20186;-80
2022/09/23 09:57:59;;;;;;;1.93;1.77;;;;;;;18.28;43.17;97189.78;5090011;28;20286;-80
2022/09/23 10:00:30;;;;;;;2.63;2.13;;;;;;;18.23;43.27;97189.28;5110752;28;20631;-80
2022/09/23 10:03:13;;;;;;;3.17;1.83;;;;;;;18.29;44.03;97189.69;5091053;28;20277;-82
2022/09/23 10:05:46;;;;;;;6.67;2.30;;;;;;;18.01;43.70;97194.44;5108942;28;20220;-81
2022/09/23 10:08:33;;;;;;;2.90;2.50;;;;;;;17.65;44.08;97198.75;5111858;28;20250;-85
2022/09/23 10:11:14;;;;;;;5.60;4.17;;;;;;;17.63;43.26;97199.81;5110074;28;20193;-82
2022/09/23 10:14:01;;;;;;;4.90;2.10;;;;;;;17.59;42.78;97196.56;5112696;28;20186;-83
2022/09/23 10:16:33;;;;;;;2.40;2.20;;;;;;;17.38;44.23;97199.81;5098451;28;20210;-81
2022/09/23 10:19:03;;;;;;;5.20;2.30;;;;;;;17.54;45.02;97189.97;5113329;28;20243;-85
2022/09/23 10:21:36;;;;;;;3.03;2.50;;;;;;;17.41;46.26;97197.84;5095369;28;20197;-82
2022/09/23 10:24:06;;;;;;;4.63;2.40;;;;;;;17.21;47.77;97198.38;5114197;28;20204;-79
2022/09/23 10:26:42;;;;;;;3.57;2.67;;;;;;;17.06;48.91;97202.91;5060475;28;20285;-84
2022/09/23 10:29:35;;;;;;;6.07;2.50;;;;;;;16.58;49.74;97198.41;5119460;28;20200;-85
2022/09/23 10:32:42;;;;;;;4.87;2.83;;;;;;;16.52;50.45;97213.66;5117263;28;20879;-83
2022/09/23 10:35:10;;;;;;;7.13;2.87;;;;;;;16.38;52.26;97222.41;5110929;28;20200;-80
2022/09/23 10:37:37;;;;;;;4.63;2.70;;;;;;;16.22;53.81;97217.31;5109825;28;20584;-81
2022/09/23 10:49:14;;;;;;;5.53;2.73;;;;;;;16.03;54.77;97210.78;5096786;28;20208;-85
2022/09/23 10:52:17;;;;;;;5.93;3.00;;;;;;;15.93;54.94;97209.72;5092253;28;20191;-80
2022/09/23 10:54:59;;;;;;;7.20;3.90;;;;;;;16.00;55.11;97196.13;5022239;28;20678;-81
2022/09/23 10:57:41;;;;;;;2.33;2.13;;;;;;;15.78;55.87;97208.91;5110567;28;20188;-82
2022/09/23 11:00:36;;;;;;;6.47;4.07;;;;;;;16.12;55.43;97211.00;5096569;28;20731;-84
2022/09/23 11:03:26;;;;;;;4.40;2.40;;;;;;;15.98;56.26;97212.84;5116823;28;20198;-84
2022/09/23 11:05:56;;;;;;;8.30;3.47;;;;;;;16.09;57.46;97211.19;5112520;28;20257;-84
2022/09/23 11:08:38;;;;;;;5.80;3.87;;;;;;;16.19;60.29;97204.47;5090755;28;20269;-81
2022/09/23 11:11:19;;;;;;;4.80;4.30;;;;;;;16.19;62.10;97214.06;5112803;28;20188;-82
2022/09/23 11:14:20;;;;;;;6.63;3.30;;;;;;;16.23;61.75;97213.78;5115532;28;20180;-85
2022/09/23 11:17:25;;;;;;;5.33;3.40;;;;;;;16.39;61.33;97212.75;5114737;28;20282;-83
2022/09/23 11:20:50;;;;;;;5.17;4.30;;;;;;;16.28;60.98;97205.63;5103044;28;20249;-83
2022/09/23 11:23:33;;;;;;;2.80;2.60;;;;;;;16.00;60.29;97196.13;5118007;28;20226;-82
2022/09/23 11:26:31;;;;;;;3.07;2.30;;;;;;;15.99;59.90;97194.44;5112881;28;20192;-83
2022/09/23 11:29:29;;;;;;;5.00;3.20;;;;;;;16.01;58.57;97197.00;5114931;28;20187;-83
2022/09/23 11:32:19;;;;;;;4.53;3.03;;;;;;;16.01;57.28;97194.38;5119653;28;20193;-86
2022/09/23 11:35:28;;;;;;;6.00;2.67;;;;;;;15.96;56.69;97205.13;5108932;28;20190;-82
2022/09/23 11:38:09;;;;;;;3.17;2.83;;;;;;;16.02;57.35;97191.66;5091191;28;20187;-81
2022/09/23 11:40:39;;;;;;;3.20;2.80;;;;;;;16.13;57.12;97181.34;5109024;28;20212;-82
2022/09/23 11:43:28;;;;;;;2.57;2.37;;;;;;;16.10;56.56;97176.31;5117070;28;20230;-81
2022/09/23 11:46:34;;;;;;;8.13;2.93;;;;;;;16.37;57.36;97180.66;5098669;28;20286;-85
2022/09/23 11:49:25;;;;;;;2.40;2.20;;;;;;;16.72;55.59;97173.94;5093933;28;20224;-84
2022/09/23 11:52:26;;;;;;;2.70;2.27;;;;;;;17.05;53.14;97169.00;5109410;28;20188;-83
2022/09/23 11:55:02;;;;;;;3.30;2.23;;;;;;;17.09;53.33;97165.22;5082211;28;20195;-85
2022/09/23 11:57:57;;;;;;;3.77;2.67;;;;;;;17.30;52.56;97166.34;5090050;28;20235;-82
2022/09/23 12:00:33;;;;;;;3.90;2.13;;;;;;;17.08;51.31;97160.94;5094757;28;20621;-81
2022/09/23 12:03:10;;;;;;;3.17;2.37;;;;;;;17.21;52.71;97151.28;5074369;28;20558;-82
2022/09/23 12:05:46;;;;;;;3.33;3.03;;;;;;;17.52;53.23;97158.66;5113241;28;20279;-85
2022/09/23 12:08:32;;;;;;;2.17;1.97;;;;;;;17.75;50.86;97159.63;5109085;28;20218;-82
2022/09/23 12:11:11;;;;;;;5.20;2.40;;;;;;;17.57;49.06;97159.19;5107562;28;20233;-83
2022/09/23 12:13:49;;;;;;;2.27;2.07;;;;;;;17.53;49.79;97157.72;5114057;28;20192;-82
2022/09/23 12:16:43;;;;;;;2.57;2.00;;;;;;;17.60;48.55;97158.09;5110799;28;20193;-82
2022/09/23 12:19:35;;;;;;;4.30;3.20;;;;;;;17.82;48.07;97153.00;5107950;28;20202;-83
2022/09/23 12:22:24;;;;;;;2.67;2.20;;;;;;;18.04;45.88;97150.47;5090971;28;20216;-81
2022/09/23 12:25:23;;;;;;;6.10;2.30;;;;;;;18.21;46.08;97151.88;5108900;28;20220;-82
2022/09/23 12:27:54;;;;;;;7.80;2.80;;;;;;;18.22;46.67;97145.66;5107699;28;20316;-82
2022/09/23 12:30:25;;;;;;;4.80;2.50;;;;;;;18.20;46.54;97147.56;5108365;28;20290;-79